sensor_id;sensor_type;location;lat;lon;timestamp;temperature;humidity
15083;DHT22;7640;53.116;6.878;2023-02-04T00:00:33;8.00;99.90
15083;DHT22;7640;53.116;6.878;2023-02-04T00:03:04;7.90;99.90
15083;DHT22;7640;53.116;6.878;2023-02-04T00:05:33;7.90;99.90
15083;DHT22;7640;53.116;6.878;2023-02-04T00:08:03;7.90;99.90
15083;DHT22;7640;53.116;6.878;2023-02-04T00:10:32;7.90;99.90
15083;DHT22;7640;53.116;6.878;2023-02-04T00:13:00;7.90;99.90
15083;DHT22;7640;53.116;6.878;2023-02-04T00:15:29;7.90;99.90
15083;DHT22;7640;53.116;6.878;2023-02-04T00:17:58;7.80;99.90
15083;DHT22;7640;53.116;6.878;2023-02-04T00:20:27;7.80;99.90
15083;DHT22;7640;53.116;6.878;2023-02-04T00:22:56;7.80;99.90
15083;DHT22;7640;53.116;6.878;2023-02-04T00:25:25;7.80;99.90
15083;DHT22;7640;53.116;6.878;2023-02-04T00:27:54;7.80;99.90
15083;DHT22;7640;53.116;6.878;2023-02-04T00:30:23;7.80;99.90
15083;DHT22;7640;53.116;6.878;2023-02-04T00:32:51;7.80;99.90
15083;DHT22;7640;53.116;6.878;2023-02-04T00:35:21;7.80;99.90
15083;DHT22;7640;53.116;6.878;2023-02-04T00:37:50;7.80;99.90
15083;DHT22;7640;53.116;6.878;2023-02-04T00:40:18;7.80;99.90
15083;DHT22;7640;53.116;6.878;2023-02-04T00:42:49;7.80;99.90
15083;DHT22;7640;53.116;6.878;2023-02-04T00:45:17;7.80;99.90
15083;DHT22;7640;53.116;6.878;2023-02-04T00:47:46;7.70;99.90
15083;DHT22;7640;53.116;6.878;2023-02-04T00:50:14;7.70;99.90
15083;DHT22;7640;53.116;6.878;2023-02-04T00:52:43;7.70;99.90
15083;DHT22;7640;53.116;6.878;2023-02-04T00:55:12;7.70;99.90
15083;DHT22;7640;53.116;6.878;2023-02-04T00:57:43;7.70;99.90
15083;DHT22;7640;53.116;6.878;2023-02-04T01:00:15;7.70;99.90
15083;DHT22;7640;53.116;6.878;2023-02-04T01:02:44;7.70;99.90
15083;DHT22;7640;53.116;6.878;2023-02-04T01:05:13;7.70;99.90
15083;DHT22;7640;53.116;6.878;2023-02-04T01:07:41;7.70;99.90
15083;DHT22;7640;53.116;6.878;2023-02-04T01:10:10;7.70;99.90
15083;DHT22;7640;53.116;6.878;2023-02-04T01:12:38;7.70;99.90
15083;DHT22;7640;53.116;6.878;2023-02-04T01:15:07;7.70;99.90
15083;DHT22;7640;53.116;6.878;2023-02-04T01:17:38;7.70;99.90
15083;DHT22;7640;53.116;6.878;2023-02-04T01:20:08;7.70;99.90
15083;DHT22;7640;53.116;6.878;2023-02-04T01:22:37;7.80;99.90
15083;DHT22;7640;53.116;6.878;2023-02-04T01:25:06;7.80;99.90
15083;DHT22;7640;53.116;6.878;2023-02-04T01:27:35;7.80;99.90
15083;DHT22;7640;53.116;6.878;2023-02-04T01:30:04;7.80;99.90
15083;DHT22;7640;53.116;6.878;2023-02-04T01:32:33;7.90;99.90
15083;DHT22;7640;53.116;6.878;2023-02-04T01:35:04;7.90;99.90
15083;DHT22;7640;53.116;6.878;2023-02-04T01:37:33;7.90;99.90
15083;DHT22;7640;53.116;6.878;2023-02-04T01:40:02;7.90;99.90
15083;DHT22;7640;53.116;6.878;2023-02-04T01:42:31;7.90;99.90
15083;DHT22;7640;53.116;6.878;2023-02-04T01:45:00;7.90;99.90
15083;DHT22;7640;53.116;6.878;2023-02-04T01:47:29;7.90;99.90
15083;DHT22;7640;53.116;6.878;2023-02-04T01:49:57;7.90;99.90
15083;DHT22;7640;53.116;6.878;2023-02-04T01:52:28;7.90;99.90
15083;DHT22;7640;53.116;6.878;2023-02-04T01:55:03;7.90;99.90
15083;DHT22;7640;53.116;6.878;2023-02-04T01:57:32;8.00;99.90
15083;DHT22;7640;53.116;6.878;2023-02-04T02:00:01;8.00;99.90
15083;DHT22;7640;53.116;6.878;2023-02-04T02:02:42;8.00;99.90
15083;DHT22;7640;53.116;6.878;2023-02-04T02:05:15;8.00;99.90
15083;DHT22;7640;53.116;6.878;2023-02-04T02:07:46;8.00;99.90
15083;DHT22;7640;53.116;6.878;2023-02-04T02:10:17;8.00;99.90
15083;DHT22;7640;53.116;6.878;2023-02-04T02:12:45;8.00;99.90
15083;DHT22;7640;53.116;6.878;2023-02-04T02:15:16;8.00;99.90
15083;DHT22;7640;53.116;6.878;2023-02-04T02:17:45;8.00;99.90
15083;DHT22;7640;53.116;6.878;2023-02-04T02:20:16;8.00;99.90
15083;DHT22;7640;53.116;6.878;2023-02-04T02:22:57;8.00;99.90
15083;DHT22;7640;53.116;6.878;2023-02-04T02:25:30;8.00;99.90
15083;DHT22;7640;53.116;6.878;2023-02-04T02:27:59;8.00;99.90
15083;DHT22;7640;53.116;6.878;2023-02-04T02:30:36;8.00;99.90
15083;DHT22;7640;53.116;6.878;2023-02-04T02:33:06;8.00;99.90
15083;DHT22;7640;53.116;6.878;2023-02-04T02:35:34;8.00;99.90
15083;DHT22;7640;53.116;6.878;2023-02-04T02:38:03;8.00;99.90
15083;DHT22;7640;53.116;6.878;2023-02-04T02:40:33;8.00;99.90
15083;DHT22;7640;53.116;6.878;2023-02-04T02:43:01;8.10;99.90
15083;DHT22;7640;53.116;6.878;2023-02-04T02:45:31;8.10;99.90
15083;DHT22;7640;53.116;6.878;2023-02-04T02:48:00;8.10;99.90
15083;DHT22;7640;53.116;6.878;2023-02-04T02:50:31;8.10;99.90
15083;DHT22;7640;53.116;6.878;2023-02-04T02:53:00;8.10;99.90
15083;DHT22;7640;53.116;6.878;2023-02-04T02:55:30;8.10;99.90
15083;DHT22;7640;53.116;6.878;2023-02-04T02:58:00;8.10;99.90
15083;DHT22;7640;53.116;6.878;2023-02-04T03:00:29;8.00;99.90
15083;DHT22;7640;53.116;6.878;2023-02-04T03:03:01;8.00;99.90
15083;DHT22;7640;53.116;6.878;2023-02-04T03:05:37;8.00;99.90
15083;DHT22;7640;53.116;6.878;2023-02-04T03:08:08;8.00;99.90
15083;DHT22;7640;53.116;6.878;2023-02-04T03:10:38;8.00;99.90
15083;DHT22;7640;53.116;6.878;2023-02-04T03:13:08;8.00;99.90
15083;DHT22;7640;53.116;6.878;2023-02-04T03:15:37;7.90;99.90
15083;DHT22;7640;53.116;6.878;2023-02-04T03:18:06;7.90;99.90
15083;DHT22;7640;53.116;6.878;2023-02-04T03:20:35;7.90;99.90
15083;DHT22;7640;53.116;6.878;2023-02-04T03:23:04;7.90;99.90
15083;DHT22;7640;53.116;6.878;2023-02-04T03:25:33;7.90;99.90
15083;DHT22;7640;53.116;6.878;2023-02-04T03:28:01;7.90;99.90
15083;DHT22;7640;53.116;6.878;2023-02-04T03:30:32;7.90;99.90
15083;DHT22;7640;53.116;6.878;2023-02-04T03:33:01;7.80;99.90
15083;DHT22;7640;53.116;6.878;2023-02-04T03:35:29;7.80;99.90
15083;DHT22;7640;53.116;6.878;2023-02-04T03:37:57;7.80;99.90
15083;DHT22;7640;53.116;6.878;2023-02-04T03:40:26;7.80;99.90
15083;DHT22;7640;53.116;6.878;2023-02-04T03:42:56;7.80;99.90
15083;DHT22;7640;53.116;6.878;2023-02-04T03:45:24;7.80;99.90
15083;DHT22;7640;53.116;6.878;2023-02-04T03:48:02;7.70;99.90
15083;DHT22;7640;53.116;6.878;2023-02-04T03:50:30;7.70;99.90
15083;DHT22;7640;53.116;6.878;2023-02-04T03:52:59;7.70;99.90
15083;DHT22;7640;53.116;6.878;2023-02-04T03:55:27;7.70;99.90
15083;DHT22;7640;53.116;6.878;2023-02-04T03:57:58;7.70;99.90
15083;DHT22;7640;53.116;6.878;2023-02-04T04:00:26;7.70;99.90
15083;DHT22;7640;53.116;6.878;2023-02-04T04:02:55;7.70;99.90
15083;DHT22;7640;53.116;6.878;2023-02-04T04:05:25;7.60;99.90
15083;DHT22;7640;53.116;6.878;2023-02-04T04:07:54;7.60;99.90
15083;DHT22;7640;53.116;6.878;2023-02-04T04:10:23;7.60;99.90
15083;DHT22;7640;53.116;6.878;2023-02-04T04:12:51;7.60;99.90
15083;DHT22;7640;53.116;6.878;2023-02-04T04:15:20;7.60;99.90
15083;DHT22;7640;53.116;6.878;2023-02-04T04:17:48;7.60;99.90
15083;DHT22;7640;53.116;6.878;2023-02-04T04:20:17;7.60;99.90
15083;DHT22;7640;53.116;6.878;2023-02-04T04:22:47;7.50;99.90
15083;DHT22;7640;53.116;6.878;2023-02-04T04:25:16;7.50;99.90
15083;DHT22;7640;53.116;6.878;2023-02-04T04:27:44;7.50;99.90
15083;DHT22;7640;53.116;6.878;2023-02-04T04:30:13;7.50;99.90
15083;DHT22;7640;53.116;6.878;2023-02-04T04:32:41;7.50;99.90
15083;DHT22;7640;53.116;6.878;2023-02-04T04:35:10;7.50;99.90
15083;DHT22;7640;53.116;6.878;2023-02-04T04:37:38;7.40;99.90
15083;DHT22;7640;53.116;6.878;2023-02-04T04:40:11;7.40;99.90
15083;DHT22;7640;53.116;6.878;2023-02-04T04:42:39;7.40;99.90
15083;DHT22;7640;53.116;6.878;2023-02-04T04:45:09;7.40;99.90
15083;DHT22;7640;53.116;6.878;2023-02-04T04:47:38;7.30;99.90
15083;DHT22;7640;53.116;6.878;2023-02-04T04:50:07;7.30;99.90
15083;DHT22;7640;53.116;6.878;2023-02-04T04:52:36;7.30;99.90
15083;DHT22;7640;53.116;6.878;2023-02-04T04:55:05;7.30;99.90
15083;DHT22;7640;53.116;6.878;2023-02-04T04:57:36;7.30;99.90
15083;DHT22;7640;53.116;6.878;2023-02-04T05:00:06;7.20;99.90
15083;DHT22;7640;53.116;6.878;2023-02-04T05:02:37;7.20;99.90
15083;DHT22;7640;53.116;6.878;2023-02-04T05:05:05;7.20;99.90
15083;DHT22;7640;53.116;6.878;2023-02-04T05:07:34;7.20;99.90
15083;DHT22;7640;53.116;6.878;2023-02-04T05:10:03;7.30;99.90
15083;DHT22;7640;53.116;6.878;2023-02-04T05:12:32;7.20;99.90
15083;DHT22;7640;53.116;6.878;2023-02-04T05:15:02;7.20;99.90
15083;DHT22;7640;53.116;6.878;2023-02-04T05:17:30;7.20;99.90
15083;DHT22;7640;53.116;6.878;2023-02-04T05:19:59;7.20;99.90
15083;DHT22;7640;53.116;6.878;2023-02-04T05:22:27;7.20;99.90
15083;DHT22;7640;53.116;6.878;2023-02-04T05:24:56;7.20;99.90
15083;DHT22;7640;53.116;6.878;2023-02-04T05:27:24;7.20;99.90
15083;DHT22;7640;53.116;6.878;2023-02-04T05:29:53;7.20;99.90
15083;DHT22;7640;53.116;6.878;2023-02-04T05:32:22;7.20;99.90
15083;DHT22;7640;53.116;6.878;2023-02-04T05:34:51;7.10;99.90
15083;DHT22;7640;53.116;6.878;2023-02-04T05:37:19;7.10;99.90
15083;DHT22;7640;53.116;6.878;2023-02-04T05:39:47;7.10;99.90
15083;DHT22;7640;53.116;6.878;2023-02-04T05:42:16;7.10;99.90
15083;DHT22;7640;53.116;6.878;2023-02-04T05:44:44;7.00;99.90
15083;DHT22;7640;53.116;6.878;2023-02-04T05:47:13;7.00;99.90
15083;DHT22;7640;53.116;6.878;2023-02-04T05:49:42;7.00;99.90
15083;DHT22;7640;53.116;6.878;2023-02-04T05:52:11;7.00;99.90
15083;DHT22;7640;53.116;6.878;2023-02-04T05:54:39;7.00;99.90
15083;DHT22;7640;53.116;6.878;2023-02-04T05:57:08;7.00;99.90
15083;DHT22;7640;53.116;6.878;2023-02-04T05:59:36;7.00;99.90
15083;DHT22;7640;53.116;6.878;2023-02-04T06:02:05;7.10;99.90
15083;DHT22;7640;53.116;6.878;2023-02-04T06:04:33;7.00;99.90
15083;DHT22;7640;53.116;6.878;2023-02-04T06:07:03;7.00;99.90
15083;DHT22;7640;53.116;6.878;2023-02-04T06:09:31;6.90;99.90
15083;DHT22;7640;53.116;6.878;2023-02-04T06:12:00;6.90;99.90
15083;DHT22;7640;53.116;6.878;2023-02-04T06:14:28;6.90;99.90
15083;DHT22;7640;53.116;6.878;2023-02-04T06:16:57;7.00;99.90
15083;DHT22;7640;53.116;6.878;2023-02-04T06:19:26;6.80;99.90
15083;DHT22;7640;53.116;6.878;2023-02-04T06:21:54;6.80;99.90
15083;DHT22;7640;53.116;6.878;2023-02-04T06:24:24;6.80;99.90
15083;DHT22;7640;53.116;6.878;2023-02-04T06:26:52;6.80;99.90
15083;DHT22;7640;53.116;6.878;2023-02-04T06:29:21;6.70;99.90
15083;DHT22;7640;53.116;6.878;2023-02-04T06:31:49;6.70;99.90
15083;DHT22;7640;53.116;6.878;2023-02-04T06:34:19;6.80;99.90
15083;DHT22;7640;53.116;6.878;2023-02-04T06:36:47;6.70;99.90
15083;DHT22;7640;53.116;6.878;2023-02-04T06:39:16;6.80;99.90
15083;DHT22;7640;53.116;6.878;2023-02-04T06:41:46;6.70;99.90
15083;DHT22;7640;53.116;6.878;2023-02-04T06:44:14;6.60;99.90
15083;DHT22;7640;53.116;6.878;2023-02-04T06:46:43;6.60;99.90
15083;DHT22;7640;53.116;6.878;2023-02-04T06:49:11;6.60;99.90
15083;DHT22;7640;53.116;6.878;2023-02-04T06:51:39;6.60;99.90
15083;DHT22;7640;53.116;6.878;2023-02-04T06:54:08;6.60;99.90
15083;DHT22;7640;53.116;6.878;2023-02-04T06:56:36;6.60;99.90
15083;DHT22;7640;53.116;6.878;2023-02-04T06:59:06;6.60;99.90
15083;DHT22;7640;53.116;6.878;2023-02-04T07:01:34;6.60;99.90
15083;DHT22;7640;53.116;6.878;2023-02-04T07:04:03;6.60;99.90
15083;DHT22;7640;53.116;6.878;2023-02-04T07:06:31;6.60;99.90
15083;DHT22;7640;53.116;6.878;2023-02-04T07:09:00;6.60;99.90
15083;DHT22;7640;53.116;6.878;2023-02-04T07:11:28;6.60;99.90
15083;DHT22;7640;53.116;6.878;2023-02-04T07:13:57;6.60;99.90
15083;DHT22;7640;53.116;6.878;2023-02-04T07:16:26;6.60;99.90
15083;DHT22;7640;53.116;6.878;2023-02-04T07:18:55;6.50;99.90
15083;DHT22;7640;53.116;6.878;2023-02-04T07:21:23;6.50;99.90
15083;DHT22;7640;53.116;6.878;2023-02-04T07:23:52;6.50;99.90
15083;DHT22;7640;53.116;6.878;2023-02-04T07:26:21;6.50;99.90
15083;DHT22;7640;53.116;6.878;2023-02-04T07:28:49;6.50;99.90
15083;DHT22;7640;53.116;6.878;2023-02-04T07:31:18;6.50;99.90
15083;DHT22;7640;53.116;6.878;2023-02-04T07:33:47;6.50;99.90
15083;DHT22;7640;53.116;6.878;2023-02-04T07:36:16;6.50;99.90
15083;DHT22;7640;53.116;6.878;2023-02-04T07:38:45;6.50;99.90
15083;DHT22;7640;53.116;6.878;2023-02-04T07:41:13;6.50;99.90
15083;DHT22;7640;53.116;6.878;2023-02-04T07:43:42;6.60;99.90
15083;DHT22;7640;53.116;6.878;2023-02-04T07:46:10;6.60;99.90
15083;DHT22;7640;53.116;6.878;2023-02-04T07:48:38;6.60;99.90
15083;DHT22;7640;53.116;6.878;2023-02-04T07:51:09;6.60;99.90
15083;DHT22;7640;53.116;6.878;2023-02-04T07:53:37;6.60;99.90
15083;DHT22;7640;53.116;6.878;2023-02-04T07:56:06;6.60;99.90
15083;DHT22;7640;53.116;6.878;2023-02-04T07:58:34;6.60;99.90
15083;DHT22;7640;53.116;6.878;2023-02-04T08:01:03;6.60;99.90
15083;DHT22;7640;53.116;6.878;2023-02-04T08:03:31;6.60;99.90
15083;DHT22;7640;53.116;6.878;2023-02-04T08:06:02;6.60;99.90
15083;DHT22;7640;53.116;6.878;2023-02-04T08:08:32;6.60;99.90
15083;DHT22;7640;53.116;6.878;2023-02-04T08:11:00;6.60;99.90
15083;DHT22;7640;53.116;6.878;2023-02-04T08:13:29;6.60;99.90
15083;DHT22;7640;53.116;6.878;2023-02-04T08:15:57;6.60;99.90
15083;DHT22;7640;53.116;6.878;2023-02-04T08:18:26;6.60;99.90
15083;DHT22;7640;53.116;6.878;2023-02-04T08:20:54;6.70;99.90
15083;DHT22;7640;53.116;6.878;2023-02-04T08:23:23;6.70;99.90
15083;DHT22;7640;53.116;6.878;2023-02-04T08:25:52;6.70;99.90
15083;DHT22;7640;53.116;6.878;2023-02-04T08:28:21;6.70;99.90
15083;DHT22;7640;53.116;6.878;2023-02-04T08:30:50;6.80;99.90
15083;DHT22;7640;53.116;6.878;2023-02-04T08:33:19;6.80;99.90
15083;DHT22;7640;53.116;6.878;2023-02-04T08:35:48;6.80;99.90
15083;DHT22;7640;53.116;6.878;2023-02-04T08:38:16;6.90;99.90
15083;DHT22;7640;53.116;6.878;2023-02-04T08:40:45;6.90;99.90
15083;DHT22;7640;53.116;6.878;2023-02-04T08:43:15;6.90;99.90
15083;DHT22;7640;53.116;6.878;2023-02-04T08:45:43;7.00;99.90
15083;DHT22;7640;53.116;6.878;2023-02-04T08:48:12;7.00;99.90
15083;DHT22;7640;53.116;6.878;2023-02-04T08:50:41;7.00;99.90
15083;DHT22;7640;53.116;6.878;2023-02-04T08:53:09;7.10;99.90
15083;DHT22;7640;53.116;6.878;2023-02-04T08:55:38;7.10;99.90
15083;DHT22;7640;53.116;6.878;2023-02-04T08:58:06;7.10;99.90
15083;DHT22;7640;53.116;6.878;2023-02-04T09:00:36;7.00;99.90
15083;DHT22;7640;53.116;6.878;2023-02-04T09:03:05;7.00;99.90
15083;DHT22;7640;53.116;6.878;2023-02-04T09:05:33;7.00;99.90
15083;DHT22;7640;53.116;6.878;2023-02-04T09:08:02;7.10;99.90
15083;DHT22;7640;53.116;6.878;2023-02-04T09:10:30;7.10;99.90
15083;DHT22;7640;53.116;6.878;2023-02-04T09:12:59;7.20;99.90
15083;DHT22;7640;53.116;6.878;2023-02-04T09:15:27;7.20;99.90
15083;DHT22;7640;53.116;6.878;2023-02-04T09:17:57;7.20;99.90
15083;DHT22;7640;53.116;6.878;2023-02-04T09:20:30;7.20;99.90
15083;DHT22;7640;53.116;6.878;2023-02-04T09:23:01;7.20;99.90
15083;DHT22;7640;53.116;6.878;2023-02-04T09:25:30;7.20;99.90
15083;DHT22;7640;53.116;6.878;2023-02-04T09:27:58;7.20;99.90
15083;DHT22;7640;53.116;6.878;2023-02-04T09:30:27;7.20;99.90
15083;DHT22;7640;53.116;6.878;2023-02-04T09:32:57;7.20;99.90
15083;DHT22;7640;53.116;6.878;2023-02-04T09:35:25;7.10;99.90
15083;DHT22;7640;53.116;6.878;2023-02-04T09:37:54;7.10;99.90
15083;DHT22;7640;53.116;6.878;2023-02-04T09:40:26;7.20;99.90
15083;DHT22;7640;53.116;6.878;2023-02-04T09:42:58;7.20;99.90
15083;DHT22;7640;53.116;6.878;2023-02-04T09:45:29;7.30;99.90
15083;DHT22;7640;53.116;6.878;2023-02-04T09:48:04;7.30;99.90
15083;DHT22;7640;53.116;6.878;2023-02-04T09:50:35;7.40;99.90
15083;DHT22;7640;53.116;6.878;2023-02-04T09:53:05;7.50;99.90
15083;DHT22;7640;53.116;6.878;2023-02-04T09:55:37;7.50;99.90
15083;DHT22;7640;53.116;6.878;2023-02-04T09:58:12;7.50;99.90
15083;DHT22;7640;53.116;6.878;2023-02-04T10:00:42;7.60;99.90
15083;DHT22;7640;53.116;6.878;2023-02-04T10:03:15;7.70;99.90
15083;DHT22;7640;53.116;6.878;2023-02-04T10:05:47;7.80;99.90
15083;DHT22;7640;53.116;6.878;2023-02-04T10:08:20;7.90;99.90
15083;DHT22;7640;53.116;6.878;2023-02-04T10:10:51;8.00;99.90
15083;DHT22;7640;53.116;6.878;2023-02-04T10:13:29;8.10;99.90
15083;DHT22;7640;53.116;6.878;2023-02-04T10:15:59;8.10;99.90
15083;DHT22;7640;53.116;6.878;2023-02-04T10:18:31;8.20;99.90
15083;DHT22;7640;53.116;6.878;2023-02-04T10:21:13;8.30;99.90
15083;DHT22;7640;53.116;6.878;2023-02-04T10:23:46;8.30;99.90
15083;DHT22;7640;53.116;6.878;2023-02-04T10:26:16;8.30;99.90
15083;DHT22;7640;53.116;6.878;2023-02-04T10:28:44;8.30;99.90
15083;DHT22;7640;53.116;6.878;2023-02-04T10:31:31;8.40;99.90
15083;DHT22;7640;53.116;6.878;2023-02-04T10:34:05;8.40;99.90
15083;DHT22;7640;53.116;6.878;2023-02-04T10:36:36;8.40;99.90
15083;DHT22;7640;53.116;6.878;2023-02-04T10:39:09;8.50;99.90
15083;DHT22;7640;53.116;6.878;2023-02-04T10:41:45;8.60;99.90
15083;DHT22;7640;53.116;6.878;2023-02-04T10:44:17;8.60;99.90
15083;DHT22;7640;53.116;6.878;2023-02-04T10:46:47;8.70;99.90
15083;DHT22;7640;53.116;6.878;2023-02-04T10:49:19;8.70;99.90
15083;DHT22;7640;53.116;6.878;2023-02-04T10:51:50;8.80;99.90
15083;DHT22;7640;53.116;6.878;2023-02-04T10:54:21;8.80;99.90
15083;DHT22;7640;53.116;6.878;2023-02-04T10:57:10;8.80;99.90
15083;DHT22;7640;53.116;6.878;2023-02-04T10:59:47;8.90;99.90
15083;DHT22;7640;53.116;6.878;2023-02-04T11:02:36;8.90;99.90
15083;DHT22;7640;53.116;6.878;2023-02-04T11:05:15;9.00;99.90
15083;DHT22;7640;53.116;6.878;2023-02-04T11:07:48;9.00;99.90
15083;DHT22;7640;53.116;6.878;2023-02-04T11:10:19;9.10;99.90
15083;DHT22;7640;53.116;6.878;2023-02-04T11:12:59;9.10;99.90
15083;DHT22;7640;53.116;6.878;2023-02-04T11:15:44;9.10;99.90
15083;DHT22;7640;53.116;6.878;2023-02-04T11:18:27;9.20;99.90
15083;DHT22;7640;53.116;6.878;2023-02-04T11:20:58;9.20;99.90
15083;DHT22;7640;53.116;6.878;2023-02-04T11:23:33;9.30;99.90
15083;DHT22;7640;53.116;6.878;2023-02-04T11:26:09;9.20;99.90
15083;DHT22;7640;53.116;6.878;2023-02-04T11:28:55;9.30;99.90
15083;DHT22;7640;53.116;6.878;2023-02-04T11:31:55;9.30;99.90
15083;DHT22;7640;53.116;6.878;2023-02-04T11:34:27;9.30;99.90
15083;DHT22;7640;53.116;6.878;2023-02-04T11:37:09;9.20;99.90
15083;DHT22;7640;53.116;6.878;2023-02-04T11:39:45;9.20;99.90
15083;DHT22;7640;53.116;6.878;2023-02-04T11:42:20;9.10;99.90
15083;DHT22;7640;53.116;6.878;2023-02-04T11:44:54;9.10;99.90
15083;DHT22;7640;53.116;6.878;2023-02-04T11:47:26;9.00;99.90
15083;DHT22;7640;53.116;6.878;2023-02-04T11:49:57;9.00;99.90
15083;DHT22;7640;53.116;6.878;2023-02-04T11:52:28;8.90;99.90
15083;DHT22;7640;53.116;6.878;2023-02-04T11:54:58;8.80;99.90
15083;DHT22;7640;53.116;6.878;2023-02-04T11:57:27;8.70;99.90
15083;DHT22;7640;53.116;6.878;2023-02-04T11:59:55;8.60;99.90
15083;DHT22;7640;53.116;6.878;2023-02-04T12:02:24;8.50;99.90
15083;DHT22;7640;53.116;6.878;2023-02-04T12:04:54;8.50;99.90
15083;DHT22;7640;53.116;6.878;2023-02-04T12:07:26;8.50;99.90
15083;DHT22;7640;53.116;6.878;2023-02-04T12:10:08;8.40;99.90
15083;DHT22;7640;53.116;6.878;2023-02-04T12:12:41;8.40;99.90
15083;DHT22;7640;53.116;6.878;2023-02-04T12:15:17;8.50;99.90
15083;DHT22;7640;53.116;6.878;2023-02-04T12:18:03;8.50;99.90
15083;DHT22;7640;53.116;6.878;2023-02-04T12:20:34;8.60;99.90
15083;DHT22;7640;53.116;6.878;2023-02-04T12:23:04;8.70;99.90
15083;DHT22;7640;53.116;6.878;2023-02-04T12:25:34;8.80;99.90
15083;DHT22;7640;53.116;6.878;2023-02-04T12:28:03;8.90;99.90
15083;DHT22;7640;53.116;6.878;2023-02-04T12:30:31;9.00;99.90
15083;DHT22;7640;53.116;6.878;2023-02-04T12:32:59;9.10;99.90
15083;DHT22;7640;53.116;6.878;2023-02-04T12:35:28;9.20;99.90
15083;DHT22;7640;53.116;6.878;2023-02-04T12:37:57;9.20;99.90
15083;DHT22;7640;53.116;6.878;2023-02-04T12:40:27;9.20;99.90
15083;DHT22;7640;53.116;6.878;2023-02-04T12:42:56;9.30;99.90
15083;DHT22;7640;53.116;6.878;2023-02-04T12:45:24;9.30;99.90
15083;DHT22;7640;53.116;6.878;2023-02-04T12:47:53;9.30;99.90
15083;DHT22;7640;53.116;6.878;2023-02-04T12:50:22;9.30;99.90
15083;DHT22;7640;53.116;6.878;2023-02-04T12:52:53;9.40;99.90
15083;DHT22;7640;53.116;6.878;2023-02-04T12:55:24;9.50;99.90
15083;DHT22;7640;53.116;6.878;2023-02-04T12:57:55;9.50;99.90
15083;DHT22;7640;53.116;6.878;2023-02-04T13:00:24;9.60;99.90
15083;DHT22;7640;53.116;6.878;2023-02-04T13:02:53;9.70;99.90
15083;DHT22;7640;53.116;6.878;2023-02-04T13:05:21;9.80;99.90
15083;DHT22;7640;53.116;6.878;2023-02-04T13:07:50;9.90;99.90
15083;DHT22;7640;53.116;6.878;2023-02-04T13:10:19;9.90;99.90
15083;DHT22;7640;53.116;6.878;2023-02-04T13:12:51;10.00;99.90
15083;DHT22;7640;53.116;6.878;2023-02-04T13:15:19;10.00;99.90
15083;DHT22;7640;53.116;6.878;2023-02-04T13:17:48;10.10;99.90
15083;DHT22;7640;53.116;6.878;2023-02-04T13:20:17;10.20;99.90
15083;DHT22;7640;53.116;6.878;2023-02-04T13:22:45;10.50;99.90
15083;DHT22;7640;53.116;6.878;2023-02-04T13:25:14;10.90;99.90
15083;DHT22;7640;53.116;6.878;2023-02-04T13:27:42;11.30;99.90
15083;DHT22;7640;53.116;6.878;2023-02-04T13:30:13;11.70;99.90
15083;DHT22;7640;53.116;6.878;2023-02-04T13:32:42;12.10;99.90
15083;DHT22;7640;53.116;6.878;2023-02-04T13:35:10;12.40;99.90
15083;DHT22;7640;53.116;6.878;2023-02-04T13:37:39;12.70;99.90
15083;DHT22;7640;53.116;6.878;2023-02-04T13:40:09;12.80;99.90
15083;DHT22;7640;53.116;6.878;2023-02-04T13:42:38;12.80;99.90
15083;DHT22;7640;53.116;6.878;2023-02-04T13:45:08;12.60;99.90
15083;DHT22;7640;53.116;6.878;2023-02-04T13:47:39;12.40;99.90
15083;DHT22;7640;53.116;6.878;2023-02-04T13:50:08;12.00;99.90
15083;DHT22;7640;53.116;6.878;2023-02-04T13:52:37;11.70;99.90
15083;DHT22;7640;53.116;6.878;2023-02-04T13:55:05;11.50;99.90
15083;DHT22;7640;53.116;6.878;2023-02-04T13:57:33;11.20;99.90
15083;DHT22;7640;53.116;6.878;2023-02-04T14:00:03;10.90;99.90
15083;DHT22;7640;53.116;6.878;2023-02-04T14:02:33;10.70;99.90
15083;DHT22;7640;53.116;6.878;2023-02-04T14:05:04;10.50;99.90
15083;DHT22;7640;53.116;6.878;2023-02-04T14:07:32;10.40;99.90
15083;DHT22;7640;53.116;6.878;2023-02-04T14:10:01;10.20;99.90
15083;DHT22;7640;53.116;6.878;2023-02-04T14:12:29;10.10;99.90
15083;DHT22;7640;53.116;6.878;2023-02-04T14:14:58;10.00;99.90
15083;DHT22;7640;53.116;6.878;2023-02-04T14:17:26;9.90;99.90
15083;DHT22;7640;53.116;6.878;2023-02-04T14:19:54;9.80;99.90
15083;DHT22;7640;53.116;6.878;2023-02-04T14:22:24;9.70;99.90
15083;DHT22;7640;53.116;6.878;2023-02-04T14:24:53;9.60;99.90
15083;DHT22;7640;53.116;6.878;2023-02-04T14:27:22;9.60;99.90
15083;DHT22;7640;53.116;6.878;2023-02-04T14:29:50;9.50;99.90
15083;DHT22;7640;53.116;6.878;2023-02-04T14:32:18;9.40;99.90
15083;DHT22;7640;53.116;6.878;2023-02-04T14:34:47;9.40;99.90
15083;DHT22;7640;53.116;6.878;2023-02-04T14:37:16;9.30;99.90
15083;DHT22;7640;53.116;6.878;2023-02-04T14:39:45;9.30;99.90
15083;DHT22;7640;53.116;6.878;2023-02-04T14:42:14;9.20;99.90
15083;DHT22;7640;53.116;6.878;2023-02-04T14:44:42;9.20;99.90
15083;DHT22;7640;53.116;6.878;2023-02-04T14:47:10;9.10;99.90
15083;DHT22;7640;53.116;6.878;2023-02-04T14:49:39;9.00;99.90
15083;DHT22;7640;53.116;6.878;2023-02-04T14:52:07;9.00;99.90
15083;DHT22;7640;53.116;6.878;2023-02-04T14:54:37;9.00;99.90
15083;DHT22;7640;53.116;6.878;2023-02-04T14:57:07;8.90;99.90
15083;DHT22;7640;53.116;6.878;2023-02-04T14:59:37;8.90;99.90
15083;DHT22;7640;53.116;6.878;2023-02-04T15:02:06;8.90;99.90
15083;DHT22;7640;53.116;6.878;2023-02-04T15:04:35;8.90;99.90
15083;DHT22;7640;53.116;6.878;2023-02-04T15:07:04;8.80;99.90
15083;DHT22;7640;53.116;6.878;2023-02-04T15:09:32;8.80;99.90
15083;DHT22;7640;53.116;6.878;2023-02-04T15:12:01;8.80;99.90
15083;DHT22;7640;53.116;6.878;2023-02-04T15:14:31;8.70;99.90
15083;DHT22;7640;53.116;6.878;2023-02-04T15:17:00;8.70;99.90
15083;DHT22;7640;53.116;6.878;2023-02-04T15:19:28;8.70;99.90
15083;DHT22;7640;53.116;6.878;2023-02-04T15:21:57;8.60;99.90
15083;DHT22;7640;53.116;6.878;2023-02-04T15:24:25;8.50;99.90
15083;DHT22;7640;53.116;6.878;2023-02-04T15:26:55;8.50;99.90
15083;DHT22;7640;53.116;6.878;2023-02-04T15:29:23;8.40;99.90
15083;DHT22;7640;53.116;6.878;2023-02-04T15:31:53;8.40;99.90
15083;DHT22;7640;53.116;6.878;2023-02-04T15:34:22;8.30;99.90
15083;DHT22;7640;53.116;6.878;2023-02-04T15:36:50;8.20;99.90
15083;DHT22;7640;53.116;6.878;2023-02-04T15:39:19;8.10;99.90
15083;DHT22;7640;53.116;6.878;2023-02-04T15:41:47;8.10;99.90
15083;DHT22;7640;53.116;6.878;2023-02-04T15:44:16;8.10;99.90
15083;DHT22;7640;53.116;6.878;2023-02-04T15:46:44;8.00;99.90
15083;DHT22;7640;53.116;6.878;2023-02-04T15:49:14;7.90;99.90
15083;DHT22;7640;53.116;6.878;2023-02-04T15:51:42;7.90;99.90
15083;DHT22;7640;53.116;6.878;2023-02-04T15:54:11;7.80;99.90
15083;DHT22;7640;53.116;6.878;2023-02-04T15:56:39;7.70;99.90
15083;DHT22;7640;53.116;6.878;2023-02-04T15:59:10;7.70;99.90
15083;DHT22;7640;53.116;6.878;2023-02-04T16:01:38;7.60;99.90
15083;DHT22;7640;53.116;6.878;2023-02-04T16:04:07;7.60;99.90
15083;DHT22;7640;53.116;6.878;2023-02-04T16:06:37;7.50;99.90
15083;DHT22;7640;53.116;6.878;2023-02-04T16:09:10;7.40;99.90
15083;DHT22;7640;53.116;6.878;2023-02-04T16:11:39;7.40;99.90
15083;DHT22;7640;53.116;6.878;2023-02-04T16:14:07;7.30;99.90
15083;DHT22;7640;53.116;6.878;2023-02-04T16:16:35;7.20;99.90